createdAt,value
2022-10-11T00:00:47.057Z,5.00
2022-10-11T00:03:57.222Z,4.60
2022-10-11T00:07:05.176Z,4.50
2022-10-11T00:10:14.330Z,5.00
2022-10-11T00:13:22.078Z,4.60
2022-10-11T00:16:30.338Z,4.50
2022-10-11T00:19:38.326Z,4.60
2022-10-11T00:22:47.284Z,4.80
2022-10-11T00:26:04.374Z,5.00
2022-10-11T00:29:13.991Z,4.90
2022-10-11T00:32:22.352Z,5.10
2022-10-11T00:35:30.813Z,5.10
2022-10-11T00:38:39.110Z,4.60
2022-10-11T00:41:48.373Z,5.40
2022-10-11T00:45:33.318Z,5.00
2022-10-11T00:48:50.034Z,4.50
2022-10-11T00:52:04.218Z,5.00
2022-10-11T00:55:18.312Z,4.90
2022-10-11T00:58:27.666Z,5.20
2022-10-11T01:01:36.238Z,5.20
2022-10-11T01:04:44.975Z,5.20
2022-10-11T01:07:54.773Z,5.50
2022-10-11T01:11:03.579Z,5.10
2022-10-11T01:14:49.885Z,5.30
2022-10-11T01:18:09.284Z,5.20
2022-10-11T01:21:33.508Z,5.00
2022-10-11T01:25:19.886Z,5.60
2022-10-11T01:28:49.166Z,5.00
2022-10-11T01:32:07.307Z,5.50
2022-10-11T01:35:22.786Z,5.00
2022-10-11T01:38:37.006Z,5.10
2022-10-11T01:41:50.182Z,5.60
2022-10-11T01:45:00.206Z,4.90
2022-10-11T01:48:11.691Z,5.00
2022-10-11T01:51:23.790Z,5.40
2022-10-11T01:55:09.977Z,5.20
2022-10-11T01:58:38.230Z,5.50
2022-10-11T02:02:00.802Z,5.50
2022-10-11T02:05:19.510Z,5.50
2022-10-11T02:08:38.988Z,6.10
2022-10-11T02:11:47.507Z,5.90
2022-10-11T02:14:57.914Z,6.30
2022-10-11T02:18:11.242Z,5.70
2022-10-11T02:21:23.546Z,5.90
2022-10-11T02:24:36.570Z,5.60
2022-10-11T02:27:50.052Z,5.50
2022-10-11T02:31:01.301Z,5.80
2022-10-11T02:34:18.071Z,5.50
2022-10-11T02:37:37.786Z,5.50
2022-10-11T02:40:52.203Z,5.40
2022-10-11T02:44:06.569Z,5.70
2022-10-11T02:47:16.222Z,5.20
2022-10-11T02:50:26.413Z,5.40
2022-10-11T02:53:35.073Z,5.30
2022-10-11T02:56:44.112Z,5.10
2022-10-11T02:59:52.275Z,5.60
2022-10-11T03:03:00.358Z,5.30
2022-10-11T03:06:09.894Z,5.50
2022-10-11T03:09:17.785Z,4.90
2022-10-11T03:12:27.498Z,5.00
2022-10-11T03:15:35.301Z,5.40
2022-10-11T03:18:43.672Z,5.30
2022-10-11T03:21:51.519Z,5.70
2022-10-11T03:25:03.541Z,5.30
2022-10-11T03:28:12.337Z,5.50
2022-10-11T03:31:22.013Z,5.10
2022-10-11T03:34:29.873Z,5.20
2022-10-11T03:37:38.136Z,5.40
2022-10-11T03:40:47.091Z,5.20
2022-10-11T03:43:55.385Z,5.10
2022-10-11T03:47:03.092Z,5.00
2022-10-11T03:50:13.564Z,5.60
2022-10-11T03:53:21.404Z,4.90
2022-10-11T03:56:29.379Z,5.00
2022-10-11T03:59:37.500Z,5.30
2022-10-11T04:02:45.595Z,5.40
2022-10-11T04:05:53.736Z,5.60
2022-10-11T04:09:02.532Z,5.60
2022-10-11T04:12:10.624Z,5.70
2022-10-11T04:15:18.805Z,5.90
2022-10-11T04:18:26.468Z,5.40
2022-10-11T04:21:34.572Z,5.50
2022-10-11T04:24:42.566Z,5.70
2022-10-11T04:27:50.817Z,5.80
2022-10-11T04:30:58.521Z,5.50
2022-10-11T04:34:06.621Z,5.80
2022-10-11T04:37:14.630Z,5.40
2022-10-11T04:40:23.123Z,5.50
2022-10-11T04:43:30.812Z,5.00
2022-10-11T04:46:38.628Z,5.50
2022-10-11T04:49:46.393Z,5.80
2022-10-11T04:52:55.964Z,5.50
2022-10-11T04:56:08.682Z,5.70
2022-10-11T04:59:17.687Z,6.40
2022-10-11T05:02:25.994Z,6.10
2022-10-11T05:05:34.516Z,6.20
2022-10-11T05:08:42.438Z,6.50
2022-10-11T05:11:50.980Z,6.80
2022-10-11T05:14:59.810Z,6.00
2022-10-11T05:18:08.200Z,6.00
2022-10-11T05:21:22.373Z,6.40
2022-10-11T05:24:30.793Z,5.70
2022-10-11T05:27:38.826Z,6.30
2022-10-11T05:30:47.932Z,6.00
2022-10-11T05:33:55.709Z,6.00
2022-10-11T05:37:04.220Z,6.50
2022-10-11T05:40:15.198Z,6.10
2022-10-11T05:43:23.344Z,6.30
2022-10-11T05:46:31.155Z,6.40
2022-10-11T05:49:39.667Z,6.30
2022-10-11T05:52:47.538Z,5.80
2022-10-11T05:55:55.823Z,6.60
2022-10-11T05:59:05.390Z,6.10
2022-10-11T06:02:15.522Z,5.70
2022-10-11T06:05:24.333Z,6.20
2022-10-11T06:08:32.348Z,5.50
2022-10-11T06:11:41.508Z,5.90
2022-10-11T06:14:50.120Z,5.90
2022-10-11T06:17:58.258Z,5.30
2022-10-11T06:21:06.876Z,5.20
2022-10-11T06:24:14.631Z,5.80
2022-10-11T06:27:22.680Z,5.60
2022-10-11T06:30:30.398Z,5.60
2022-10-11T06:33:39.310Z,5.80
2022-10-11T06:36:47.153Z,5.40
2022-10-11T06:39:55.784Z,5.50
2022-10-11T06:43:03.912Z,5.60
2022-10-11T06:46:12.925Z,5.30
2022-10-11T06:49:23.315Z,5.50
2022-10-11T06:52:31.708Z,5.20
2022-10-11T06:55:39.462Z,5.60
2022-10-11T06:58:49.045Z,5.40
2022-10-11T07:01:57.050Z,5.20
2022-10-11T07:05:05.511Z,5.40
2022-10-11T07:08:13.422Z,5.10
2022-10-11T07:11:24.444Z,5.80
2022-10-11T07:14:32.787Z,5.70
2022-10-11T07:17:42.582Z,5.80
2022-10-11T07:23:57.533Z,6.10
2022-10-11T07:27:05.332Z,6.80
2022-10-11T07:30:16.000Z,6.30
2022-10-11T07:33:24.011Z,6.80
2022-10-11T07:36:32.951Z,7.10
2022-10-11T07:39:41.102Z,6.50
2022-10-11T07:42:49.541Z,6.90
2022-10-11T07:46:00.750Z,7.60
2022-10-11T07:49:08.943Z,7.80
2022-10-11T07:52:16.912Z,7.70
2022-10-11T07:55:25.901Z,7.60
2022-10-11T07:58:33.642Z,8.50
2022-10-11T08:01:41.816Z,7.90
2022-10-11T08:04:50.373Z,8.50
2022-10-11T08:07:59.062Z,8.10
2022-10-11T08:11:07.934Z,8.00
2022-10-11T08:14:15.921Z,8.00
2022-10-11T08:17:25.016Z,7.90
2022-10-11T08:20:33.512Z,7.70
2022-10-11T08:23:42.172Z,6.80
2022-10-11T08:26:50.514Z,7.70
2022-10-11T08:29:58.491Z,7.50
2022-10-11T08:33:08.683Z,8.20
2022-10-11T08:36:17.407Z,8.40
2022-10-11T08:39:25.697Z,9.10
2022-10-11T08:42:45.831Z,9.50
2022-10-11T08:45:58.191Z,8.10
2022-10-11T08:49:09.851Z,8.20
2022-10-11T08:52:26.085Z,8.80
2022-10-11T08:55:45.084Z,8.60
2022-10-11T08:58:59.062Z,8.70
2022-10-11T09:02:23.110Z,8.30
2022-10-11T09:05:37.638Z,8.10
2022-10-11T09:09:04.875Z,8.50
2022-10-11T09:12:31.152Z,8.90
2022-10-11T09:15:50.910Z,8.60
2022-10-11T09:19:24.400Z,8.80
2022-10-11T09:22:47.717Z,8.50
2022-10-11T09:26:00.844Z,8.40
2022-10-11T09:29:18.174Z,8.50
2022-10-11T09:32:31.769Z,8.70
2022-10-11T09:35:44.451Z,8.70
2022-10-11T09:39:05.646Z,9.20
2022-10-11T09:42:17.382Z,9.30
2022-10-11T09:45:26.800Z,9.40
2022-10-11T09:48:42.620Z,9.00
2022-10-11T09:51:57.948Z,8.40
2022-10-11T09:55:09.561Z,7.90
2022-10-11T09:58:34.592Z,8.30
2022-10-11T10:01:42.968Z,8.40
2022-10-11T10:05:18.090Z,8.40
2022-10-11T10:08:29.661Z,7.70
2022-10-11T10:11:41.951Z,7.40
2022-10-11T10:15:06.437Z,7.60
2022-10-11T10:18:25.872Z,7.30
2022-10-11T10:21:38.741Z,6.80
2022-10-11T10:24:49.098Z,7.70
2022-10-11T10:28:20.496Z,7.20
2022-10-11T10:35:09.241Z,7.70
2022-10-11T10:38:29.084Z,7.40
2022-10-11T10:41:37.560Z,7.60
2022-10-11T10:44:47.075Z,7.70
2022-10-11T10:48:18.487Z,7.80
2022-10-11T10:51:44.392Z,7.20
2022-10-11T10:55:04.070Z,7.80
2022-10-11T10:58:48.626Z,8.40
2022-10-11T11:02:28.134Z,8.80
2022-10-11T11:05:48.585Z,9.30
2022-10-11T11:09:13.379Z,9.90
2022-10-11T11:12:40.735Z,9.10
2022-10-11T11:16:00.140Z,8.90
2022-10-11T11:19:25.146Z,9.70
2022-10-11T11:22:47.219Z,8.70
2022-10-11T11:26:08.146Z,8.50
2022-10-11T11:29:33.523Z,9.00
2022-10-11T11:32:58.504Z,8.70
2022-10-11T11:36:16.744Z,8.60
2022-10-11T11:39:31.608Z,8.50
2022-10-11T11:42:46.569Z,8.70
2022-10-11T11:46:00.243Z,8.40
2022-10-11T11:49:17.931Z,9.10
2022-10-11T11:52:33.638Z,8.10
2022-10-11T11:55:52.363Z,9.30
2022-10-11T11:59:11.480Z,8.50
2022-10-11T12:02:46.823Z,8.80
2022-10-11T12:06:23.396Z,8.60
2022-10-11T12:09:33.455Z,9.00
2022-10-11T12:12:42.579Z,8.80
2022-10-11T12:16:14.169Z,8.70
2022-10-11T12:19:23.829Z,8.90
2022-10-11T12:23:00.348Z,8.70
2022-10-11T12:26:43.782Z,8.90
2022-10-11T12:29:53.302Z,8.90
2022-10-11T12:36:44.026Z,9.60
2022-10-11T12:40:02.414Z,9.80
2022-10-11T12:43:37.492Z,9.50
2022-10-11T12:47:15.476Z,9.70
2022-10-11T12:50:30.434Z,9.10
2022-10-11T12:54:26.803Z,9.50
2022-10-11T12:58:17.931Z,9.30
2022-10-11T13:01:30.507Z,8.90
2022-10-11T13:04:38.875Z,9.70
2022-10-11T13:07:47.105Z,9.50
2022-10-11T13:10:57.353Z,10.00
2022-10-11T13:14:12.843Z,9.60
2022-10-11T13:17:27.613Z,9.40
2022-10-11T13:20:40.264Z,9.10
2022-10-11T13:23:51.050Z,9.10
2022-10-11T13:27:00.284Z,8.60
2022-10-11T13:30:17.707Z,8.60
2022-10-11T13:33:32.285Z,8.40
2022-10-11T13:36:40.888Z,8.30
2022-10-11T13:39:52.428Z,9.00
2022-10-11T13:43:01.843Z,8.40
2022-10-11T13:46:24.429Z,7.70
2022-10-11T13:49:41.283Z,8.10
2022-10-11T13:53:02.897Z,8.10
2022-10-11T13:56:13.070Z,7.60
2022-10-11T13:59:25.930Z,7.60
2022-10-11T14:02:36.583Z,7.60
2022-10-11T14:05:53.607Z,7.90
2022-10-11T14:09:01.840Z,8.40
2022-10-11T14:12:38.223Z,7.30
2022-10-11T14:15:46.063Z,7.50
2022-10-11T14:19:10.366Z,7.50
2022-10-11T14:22:20.718Z,7.10
2022-10-11T14:25:28.983Z,7.70
2022-10-11T14:28:37.417Z,7.90
2022-10-11T14:31:46.370Z,7.20
2022-10-11T14:34:54.538Z,7.30
2022-10-11T14:38:03.128Z,7.60
2022-10-11T14:41:11.222Z,6.70
2022-10-11T14:44:19.993Z,6.40
2022-10-11T14:47:27.742Z,6.30
2022-10-11T14:50:44.301Z,6.10
2022-10-11T14:53:53.390Z,6.50
2022-10-11T14:57:04.184Z,6.30
2022-10-11T15:00:22.734Z,6.10
2022-10-11T15:03:30.848Z,6.40
2022-10-11T15:06:43.155Z,6.10
2022-10-11T15:09:51.357Z,6.10
2022-10-11T15:13:00.433Z,6.70
2022-10-11T15:16:09.473Z,6.70
2022-10-11T15:19:20.751Z,6.40
2022-10-11T15:22:28.798Z,6.40
2022-10-11T15:25:37.946Z,6.50
2022-10-11T15:28:46.935Z,6.10
2022-10-11T15:31:55.270Z,6.10
2022-10-11T15:35:04.720Z,6.40
2022-10-11T15:38:22.035Z,5.90
2022-10-11T15:41:30.364Z,5.80
2022-10-11T15:44:38.179Z,6.00
2022-10-11T15:47:46.824Z,6.20
2022-10-11T15:50:55.612Z,6.10
2022-10-11T15:54:03.747Z,6.70
2022-10-11T15:57:11.733Z,6.30
2022-10-11T16:00:22.501Z,6.80
2022-10-11T16:03:33.062Z,8.90
2022-10-11T16:06:41.731Z,6.70
2022-10-11T16:09:50.152Z,6.40
2022-10-11T16:12:58.245Z,6.30
2022-10-11T16:16:10.335Z,6.50
2022-10-11T16:19:18.735Z,5.80
2022-10-11T16:22:27.486Z,6.80
2022-10-11T16:25:36.134Z,6.90
2022-10-11T16:28:44.563Z,6.50
2022-10-11T16:31:55.073Z,6.70
2022-10-11T16:35:03.456Z,7.10
2022-10-11T16:38:12.142Z,6.50
2022-10-11T16:41:20.270Z,6.90
2022-10-11T16:44:29.008Z,7.10
2022-10-11T16:47:37.766Z,7.30
2022-10-11T16:50:45.891Z,7.30
2022-10-11T16:53:55.867Z,7.20
2022-10-11T16:57:04.943Z,7.30
2022-10-11T17:00:16.269Z,7.40
2022-10-11T17:03:24.371Z,7.60
2022-10-11T17:06:32.511Z,7.90
2022-10-11T17:09:44.043Z,8.70
2022-10-11T17:12:52.583Z,8.00
2022-10-11T17:16:00.825Z,8.00
2022-10-11T17:19:13.253Z,8.10
2022-10-11T17:22:23.059Z,8.10
2022-10-11T17:25:31.102Z,8.80
2022-10-11T17:28:40.359Z,8.00
2022-10-11T17:31:49.522Z,8.10
2022-10-11T17:34:59.346Z,8.50
2022-10-11T17:38:07.401Z,8.70
2022-10-11T17:41:16.319Z,9.40
2022-10-11T17:44:24.701Z,9.10
2022-10-11T17:47:32.912Z,8.80
2022-10-11T17:50:50.367Z,9.70
2022-10-11T17:53:58.998Z,9.10
2022-10-11T17:57:09.625Z,9.10
2022-10-11T18:00:20.805Z,8.10
2022-10-11T18:03:28.685Z,8.70
2022-10-11T18:06:41.686Z,9.00
2022-10-11T18:09:50.538Z,8.50
2022-10-11T18:13:01.973Z,8.80
2022-10-11T18:16:14.575Z,8.80
2022-10-11T18:19:22.629Z,8.40
2022-10-11T18:22:30.769Z,8.60
2022-10-11T18:25:39.253Z,7.80
2022-10-11T18:28:49.271Z,8.40
2022-10-11T18:31:57.778Z,8.80
2022-10-11T18:35:06.625Z,9.10
2022-10-11T18:38:14.485Z,9.20
2022-10-11T18:41:30.980Z,8.70
2022-10-11T18:44:39.521Z,8.90
2022-10-11T18:47:47.877Z,8.80
2022-10-11T18:51:08.712Z,8.70
2022-10-11T18:54:21.301Z,9.50
2022-10-11T18:57:29.563Z,9.70
2022-10-11T19:00:44.889Z,8.40
2022-10-11T19:03:57.672Z,9.00
2022-10-11T19:07:05.760Z,9.50
2022-10-11T19:10:14.373Z,8.70
2022-10-11T19:13:23.115Z,8.40
2022-10-11T19:16:32.380Z,9.90
2022-10-11T19:19:41.159Z,9.70
2022-10-11T19:22:49.473Z,9.80
2022-10-11T19:26:01.308Z,10.40
2022-10-11T19:29:12.685Z,10.40
2022-10-11T19:32:20.976Z,9.70
2022-10-11T19:35:28.942Z,10.40
2022-10-11T19:38:38.725Z,10.10
2022-10-11T19:44:54.147Z,10.10
2022-10-11T19:48:02.265Z,11.00
2022-10-11T19:51:14.201Z,10.10
2022-10-11T19:54:22.343Z,10.40
2022-10-11T19:57:30.802Z,9.80
2022-10-11T20:00:39.665Z,10.10
2022-10-11T20:03:50.774Z,9.80
2022-10-11T20:06:59.094Z,10.30
2022-10-11T20:10:07.838Z,10.50
2022-10-11T20:13:15.921Z,9.70
2022-10-11T20:16:27.407Z,10.40
2022-10-11T20:19:36.578Z,10.50
2022-10-11T20:22:44.656Z,10.80
2022-10-11T20:26:02.712Z,10.70
2022-10-11T20:29:11.112Z,10.80
2022-10-11T20:32:19.779Z,11.60
2022-10-11T20:35:30.616Z,9.30
2022-10-11T20:38:40.606Z,9.60
2022-10-11T20:41:48.930Z,9.60
2022-10-11T20:44:56.995Z,9.90
2022-10-11T20:48:04.938Z,10.80
2022-10-11T20:51:14.073Z,10.20
2022-10-11T20:54:22.454Z,11.40
2022-10-11T20:57:31.874Z,10.80
2022-10-11T21:00:41.485Z,10.70
2022-10-11T21:03:50.493Z,10.00
2022-10-11T21:06:58.314Z,9.80
2022-10-11T21:10:06.789Z,9.70
2022-10-11T21:13:14.905Z,10.60
2022-10-11T21:16:23.083Z,10.40
2022-10-11T21:19:31.333Z,10.00
2022-10-11T21:22:39.336Z,10.50
2022-10-11T21:25:47.608Z,10.20
2022-10-11T21:28:55.915Z,9.90
2022-10-11T21:32:03.768Z,11.10
2022-10-11T21:35:11.705Z,10.40
2022-10-11T21:38:19.856Z,10.70
2022-10-11T21:41:30.457Z,10.70
2022-10-11T21:44:38.342Z,11.20
2022-10-11T21:47:47.794Z,11.30
2022-10-11T21:50:58.459Z,11.50
2022-10-11T21:54:06.906Z,10.70
2022-10-11T21:57:15.353Z,11.80
2022-10-11T22:00:23.740Z,12.20
2022-10-11T22:03:31.680Z,11.60
2022-10-11T22:06:40.053Z,11.90
2022-10-11T22:09:47.983Z,12.60
2022-10-11T22:12:56.077Z,12.60
2022-10-11T22:16:07.033Z,11.50
2022-10-11T22:19:14.854Z,11.80
2022-10-11T22:22:22.937Z,12.60
2022-10-11T22:25:30.843Z,11.90
2022-10-11T22:28:39.217Z,11.60
2022-10-11T22:31:47.708Z,12.10
2022-10-11T22:34:55.606Z,11.20
2022-10-11T22:38:07.218Z,11.80
2022-10-11T22:41:15.517Z,11.80
2022-10-11T22:44:23.396Z,11.50
2022-10-11T22:47:31.300Z,11.30
2022-10-11T22:50:39.566Z,11.90
2022-10-11T22:53:48.030Z,12.60
2022-10-11T22:56:55.945Z,12.20
2022-10-11T23:00:03.740Z,11.50
2022-10-11T23:03:15.167Z,11.90
2022-10-11T23:06:23.355Z,11.40
2022-10-11T23:09:31.890Z,11.60
2022-10-11T23:12:39.975Z,11.20
2022-10-11T23:15:48.831Z,11.30
2022-10-11T23:18:58.186Z,10.80
2022-10-11T23:22:06.388Z,11.40
2022-10-11T23:25:14.901Z,11.00
2022-10-11T23:28:22.739Z,11.10
2022-10-11T23:31:31.250Z,11.50
2022-10-11T23:34:39.642Z,11.30
2022-10-11T23:37:47.942Z,11.30
2022-10-11T23:40:55.963Z,11.60
2022-10-11T23:44:04.068Z,10.90
2022-10-11T23:47:11.985Z,11.70
2022-10-11T23:50:21.618Z,11.20
2022-10-11T23:53:29.603Z,11.60
2022-10-11T23:56:38.264Z,11.60
2022-10-11T23:59:46.798Z,11.50
